createdAt,value
2019-05-21T00:00:26.309Z,31.32
2019-05-21T00:05:32.359Z,40.87
2019-05-21T00:10:38.339Z,38.63
2019-05-21T00:15:44.327Z,34.29
2019-05-21T00:20:50.300Z,33.17
2019-05-21T00:25:56.303Z,33.71
2019-05-21T00:31:02.316Z,22.33
2019-05-21T00:36:08.326Z,20.03
2019-05-21T00:41:14.325Z,17.54
2019-05-21T00:46:20.351Z,25.88
2019-05-21T00:51:26.362Z,18.60
2019-05-21T00:56:32.373Z,20.20
2019-05-21T01:01:38.341Z,20.00
2019-05-21T01:06:44.335Z,18.76
2019-05-21T01:11:50.332Z,18.70
2019-05-21T01:16:56.306Z,27.55
2019-05-21T01:22:02.294Z,22.69
2019-05-21T01:27:08.286Z,16.65
2019-05-21T01:32:14.303Z,18.24
2019-05-21T01:37:20.280Z,18.81
2019-05-21T01:42:26.338Z,15.87
2019-05-21T01:47:32.327Z,16.69
2019-05-21T01:52:38.310Z,17.08
2019-05-21T01:57:44.369Z,17.13
2019-05-21T02:02:50.373Z,15.54
2019-05-21T02:07:56.522Z,23.43
2019-05-21T02:13:02.525Z,14.77
2019-05-21T02:18:08.492Z,21.19
2019-05-21T02:23:14.484Z,23.27
2019-05-21T02:28:20.483Z,15.95
2019-05-21T02:33:26.491Z,17.29
2019-05-21T02:38:32.501Z,17.73
2019-05-21T02:43:38.568Z,24.31
2019-05-21T02:48:44.519Z,16.88
2019-05-21T02:53:50.477Z,17.30
2019-05-21T02:58:56.459Z,17.32
2019-05-21T03:04:02.463Z,17.72
2019-05-21T03:09:08.461Z,26.14
2019-05-21T03:14:14.545Z,17.02
2019-05-21T03:19:20.569Z,16.82
2019-05-21T03:24:26.601Z,17.00
2019-05-21T03:29:32.644Z,18.56
2019-05-21T03:34:38.669Z,26.09
2019-05-21T03:39:44.703Z,17.53
2019-05-21T03:44:59.714Z,26.97
2019-05-21T03:49:56.253Z,15.48
2019-05-21T03:55:03.295Z,17.94
2019-05-21T04:00:07.850Z,25.91
2019-05-21T04:05:13.931Z,17.53
2019-05-21T04:10:19.936Z,17.33
2019-05-21T04:15:25.957Z,17.12
2019-05-21T04:20:32.031Z,16.44
2019-05-21T04:25:38.038Z,16.44
2019-05-21T04:30:44.042Z,20.95
2019-05-21T04:35:50.045Z,15.05
2019-05-21T04:40:56.355Z,15.20
2019-05-21T04:46:02.347Z,14.47
2019-05-21T04:51:08.353Z,18.81
2019-05-21T04:56:14.377Z,13.25
2019-05-21T05:01:20.498Z,14.10
2019-05-21T05:06:26.523Z,13.48
2019-05-21T05:11:32.539Z,13.20
2019-05-21T05:16:38.619Z,13.01
2019-05-21T05:21:44.735Z,14.81
2019-05-21T05:26:50.787Z,17.62
2019-05-21T05:31:56.770Z,20.59
2019-05-21T05:37:02.758Z,21.38
2019-05-21T05:42:08.734Z,24.65
2019-05-21T05:47:14.768Z,24.94
2019-05-21T05:52:20.845Z,27.18
2019-05-21T05:57:26.854Z,27.32
2019-05-21T06:02:33.108Z,29.12
2019-05-21T06:07:39.154Z,28.41
2019-05-21T06:12:45.214Z,29.16
2019-05-21T06:17:51.311Z,30.07
2019-05-21T06:22:57.375Z,28.55
2019-05-21T06:28:03.375Z,29.38
2019-05-21T06:33:09.423Z,41.89
2019-05-21T06:38:18.224Z,28.86
2019-05-21T06:43:21.060Z,25.96
2019-05-21T06:48:27.075Z,26.43
2019-05-21T06:53:33.053Z,26.19
2019-05-21T06:58:39.062Z,28.72
2019-05-21T07:03:45.067Z,28.57
2019-05-21T07:08:51.225Z,25.73
2019-05-21T07:13:57.208Z,23.92
2019-05-21T07:19:03.239Z,22.31
2019-05-21T07:24:09.411Z,18.51
2019-05-21T07:29:15.434Z,15.72
2019-05-21T07:34:21.475Z,15.88
2019-05-21T07:39:27.812Z,17.62
2019-05-21T07:44:33.806Z,19.64
2019-05-21T07:49:39.829Z,28.16
2019-05-21T07:54:45.795Z,15.95
2019-05-21T07:59:51.771Z,18.02
2019-05-21T08:04:57.821Z,19.26
2019-05-21T08:10:03.814Z,21.84
2019-05-21T08:15:09.855Z,22.29
2019-05-21T08:20:15.862Z,25.76
2019-05-21T08:25:21.969Z,19.33
2019-05-21T08:30:28.061Z,17.41
2019-05-21T08:35:34.097Z,26.43
2019-05-21T08:40:40.084Z,17.86
2019-05-21T08:45:46.091Z,18.56
2019-05-21T08:50:52.152Z,32.34
2019-05-21T08:55:58.125Z,22.84
2019-05-21T09:01:04.297Z,22.79
2019-05-21T09:06:10.254Z,21.50
2019-05-21T09:11:16.249Z,18.61
2019-05-21T09:16:22.405Z,16.48
2019-05-21T09:21:28.365Z,15.76
2019-05-21T09:26:34.395Z,15.58
2019-05-21T09:31:40.404Z,21.26
2019-05-21T09:36:46.425Z,14.23
2019-05-21T09:41:52.462Z,15.64
2019-05-21T09:46:58.471Z,17.49
2019-05-21T09:52:04.453Z,15.61
2019-05-21T09:57:10.448Z,25.67
2019-05-21T10:02:16.459Z,22.58
2019-05-21T10:07:38.066Z,16.31
2019-05-21T10:12:27.985Z,22.27
2019-05-21T10:17:34.007Z,14.61
2019-05-21T10:22:40.077Z,16.39
2019-05-21T10:27:46.125Z,17.16
2019-05-21T10:32:52.215Z,14.71
2019-05-21T10:37:58.207Z,20.96
2019-05-21T10:43:04.323Z,11.08
2019-05-21T10:48:10.434Z,11.13
2019-05-21T10:53:16.463Z,12.82
2019-05-21T10:58:22.652Z,16.01
2019-05-21T11:03:28.689Z,11.30
2019-05-21T11:08:34.695Z,11.92
2019-05-21T11:13:40.720Z,18.50
2019-05-21T11:18:46.736Z,11.67
2019-05-21T11:23:52.866Z,17.41
2019-05-21T11:28:58.839Z,13.19
2019-05-21T11:34:04.897Z,11.46
2019-05-21T11:39:11.007Z,9.17
2019-05-21T11:44:16.992Z,9.73
2019-05-21T11:49:23.050Z,15.62
2019-05-21T11:54:29.093Z,10.90
2019-05-21T11:59:35.117Z,13.40
2019-05-21T12:04:41.153Z,13.91
2019-05-21T12:09:47.147Z,15.07
2019-05-21T12:14:53.166Z,16.90
2019-05-21T12:19:59.188Z,16.44
2019-05-21T12:25:05.182Z,17.01
2019-05-21T12:30:11.271Z,16.60
2019-05-21T12:35:17.285Z,15.94
2019-05-21T12:40:23.376Z,16.48
2019-05-21T12:45:30.995Z,18.01
2019-05-21T12:50:37.121Z,16.23
2019-05-21T12:55:43.112Z,16.80
2019-05-21T13:00:51.316Z,26.18
2019-05-21T13:05:57.363Z,16.14
2019-05-21T13:11:03.381Z,16.43
2019-05-21T13:16:09.370Z,26.44
2019-05-21T13:21:15.373Z,27.75
2019-05-21T13:26:21.347Z,16.78
2019-05-21T13:31:27.431Z,16.62
2019-05-21T13:36:33.474Z,18.07
2019-05-21T13:41:39.519Z,27.11
2019-05-21T13:46:45.618Z,28.54
2019-05-21T13:51:51.737Z,28.99
2019-05-21T13:56:57.799Z,18.92
2019-05-21T14:02:03.922Z,19.98
2019-05-21T14:07:10.073Z,20.28
2019-05-21T14:12:16.136Z,21.38
2019-05-21T14:17:22.127Z,22.77
2019-05-21T14:22:28.449Z,21.82
2019-05-21T14:27:43.765Z,21.50
2019-05-21T14:32:40.490Z,21.89
2019-05-21T14:37:46.537Z,20.85
2019-05-21T14:42:59.696Z,20.63
2019-05-21T14:48:03.286Z,29.42
2019-05-21T14:53:10.189Z,20.98
2019-05-21T14:58:17.830Z,22.02
2019-05-21T15:03:25.593Z,19.82
2019-05-21T15:08:29.396Z,20.09
2019-05-21T15:13:35.450Z,19.95
2019-05-21T15:18:41.489Z,28.81
2019-05-21T15:23:48.223Z,16.95
2019-05-21T15:28:53.207Z,17.93
2019-05-21T15:33:59.310Z,17.84
2019-05-21T15:39:05.318Z,17.61
2019-05-21T15:44:11.356Z,17.91
2019-05-21T15:49:17.381Z,17.87
2019-05-21T15:54:23.413Z,19.19
2019-05-21T15:59:29.410Z,19.99
2019-05-21T16:04:35.505Z,21.01
2019-05-21T16:09:41.570Z,28.47
2019-05-21T16:14:47.609Z,27.80
2019-05-21T16:19:53.691Z,17.32
2019-05-21T16:25:01.827Z,16.77
2019-05-21T16:30:05.857Z,17.19
2019-05-21T16:35:11.896Z,16.71
2019-05-21T16:40:18.269Z,18.38
2019-05-21T16:45:24.301Z,17.48
2019-05-21T16:50:30.326Z,26.07
2019-05-21T16:55:36.394Z,16.84
2019-05-21T17:00:44.145Z,18.08
2019-05-21T17:05:50.224Z,16.53
2019-05-21T17:10:56.271Z,19.08
2019-05-21T17:16:02.333Z,17.26
2019-05-21T17:21:08.441Z,15.82
2019-05-21T17:26:14.445Z,15.08
2019-05-21T17:31:20.512Z,24.64
2019-05-21T17:36:26.587Z,17.02
2019-05-21T17:41:32.647Z,19.15
2019-05-21T17:46:38.671Z,18.66
2019-05-21T17:51:44.712Z,18.97
2019-05-21T17:56:50.791Z,17.86
2019-05-21T18:01:56.813Z,18.73
2019-05-21T18:07:02.835Z,18.61
2019-05-21T18:12:08.936Z,32.31
2019-05-21T18:17:15.060Z,20.30
2019-05-21T18:22:21.217Z,19.80
2019-05-21T18:27:27.315Z,19.65
2019-05-21T18:32:33.474Z,17.74
2019-05-21T18:37:39.675Z,17.10
2019-05-21T18:42:45.823Z,22.22
2019-05-21T18:47:53.131Z,15.30
2019-05-21T18:53:00.271Z,22.55
2019-05-21T18:58:06.474Z,21.80
2019-05-21T19:03:12.665Z,14.31
2019-05-21T19:08:18.761Z,15.50
2019-05-21T19:13:24.804Z,14.58
2019-05-21T19:18:31.022Z,14.40
2019-05-21T19:23:37.075Z,14.74
2019-05-21T19:28:43.103Z,15.43
2019-05-21T19:33:49.297Z,22.93
2019-05-21T19:38:56.768Z,14.81
2019-05-21T19:44:02.564Z,22.78
2019-05-21T19:49:08.690Z,22.11
2019-05-21T19:54:14.782Z,13.77
2019-05-21T19:59:20.821Z,14.70
2019-05-21T20:04:26.913Z,13.51
2019-05-21T20:09:32.998Z,14.28
2019-05-21T20:14:39.042Z,13.88
2019-05-21T20:19:45.291Z,14.57
2019-05-21T20:24:54.300Z,14.50
2019-05-21T20:30:12.119Z,13.04
2019-05-21T20:35:05.866Z,19.67
2019-05-21T20:40:12.065Z,12.83
2019-05-21T20:45:18.152Z,19.37
2019-05-21T20:50:24.210Z,12.44
2019-05-21T20:55:30.376Z,18.98
2019-05-21T21:00:36.522Z,13.05
2019-05-21T21:05:42.571Z,11.99
2019-05-21T21:10:48.604Z,12.75
2019-05-21T21:15:54.646Z,12.56
2019-05-21T21:21:00.920Z,13.05
2019-05-21T21:26:06.945Z,12.79
2019-05-21T21:31:13.025Z,18.86
2019-05-21T21:36:19.079Z,19.40
2019-05-21T21:41:25.159Z,12.61
2019-05-21T21:46:31.189Z,11.96
2019-05-21T21:51:37.228Z,11.72
2019-05-21T21:56:43.356Z,18.02
2019-05-21T22:01:49.438Z,11.89
2019-05-21T22:06:55.557Z,18.01
2019-05-21T22:12:01.507Z,11.65
2019-05-21T22:17:07.471Z,11.04
2019-05-21T22:22:13.540Z,11.16
2019-05-21T22:27:19.555Z,10.42
2019-05-21T22:32:25.618Z,16.16
2019-05-21T22:37:31.761Z,18.36
2019-05-21T22:42:37.755Z,12.98
2019-05-21T22:47:43.740Z,13.58
2019-05-21T22:52:49.763Z,20.57
2019-05-21T22:57:55.777Z,15.38
2019-05-21T23:03:01.878Z,16.32
2019-05-21T23:08:07.944Z,17.10
2019-05-21T23:13:13.942Z,17.93
2019-05-21T23:18:20.135Z,18.36
2019-05-21T23:23:26.566Z,19.18
2019-05-21T23:28:32.647Z,20.46
2019-05-21T23:33:38.699Z,20.92
2019-05-21T23:38:44.665Z,20.86
2019-05-21T23:43:50.746Z,21.42
2019-05-21T23:48:56.832Z,22.68
2019-05-21T23:54:03.013Z,23.58
2019-05-21T23:59:09.204Z,23.13
